Consulta los datos en tiempo real de la estación municipal de Cercs - St.Jordi
| Hora UTC | 01:45 |
|---|---|
| Temperatura | 19.0 ºC |
| Humedad | 79.5 % |
| Presión | 1021.8 hPa |
| Pluja | 0.0 mm |
| Velocidad viento | 1.1 km/h |
| Dirección viento | NNE |
| Radiación solar | 0.1 W/m² |
| Temperatura (ºC) | Humedad (%) | Presión (hPa) | Velocidad viento (km/h) | Precipitación (mm) | Radiación solar (W/m²) | |||||||||||||
|---|---|---|---|---|---|---|---|---|---|---|---|---|---|---|---|---|---|---|
| Hora UTC | Aire | Humedad | Presión | Vel. | Dir. | Vel. Max | Dir. | Intent. máx 5 min. | Rad. Sol. | |||||||||
| 00:05 | 19.7 | 77.6 | 1022.0 | 2.1 | NNW | 2.1 | NW | 0.0 | 0.1 | |||||||||
| 00:10 | 19.7 | 78.6 | 1022.0 | 3.6 | NNW | 8.8 | NW | 0.0 | 0.1 | |||||||||
| 00:15 | 19.7 | 78.3 | 1022.0 | 1.2 | N | 8.8 | NE | 0.0 | 0.1 | |||||||||
| 00:20 | 19.3 | 78.9 | 1022.1 | 3.5 | WNW | 8.8 | NW | 0.0 | 0.1 | |||||||||
| 00:25 | 19.5 | 79.0 | 1022.1 | 2.5 | WNW | 8.8 | WNW | 0.0 | 0.1 | |||||||||
| 00:30 | 19.5 | 78.3 | 1022.1 | 1.9 | W | 6.1 | WSW | 0.0 | 0.1 | |||||||||
| 00:35 | 19.4 | 77.9 | 1022.1 | 0.0 | NNE | 0.0 | SW | 0.0 | 0.1 | |||||||||
| 00:40 | 19.4 | 77.8 | 1022.1 | 0.8 | SW | 6.1 | WSW | 0.0 | 0.1 | |||||||||
| 00:45 | 19.3 | 77.8 | 1022.0 | 0.4 | SSW | 6.1 | SSW | 0.0 | 0.1 | |||||||||
| 00:50 | 19.3 | 77.7 | 1022.0 | 0.5 | NNE | 6.1 | NNE | 0.0 | 0.1 | |||||||||
| 00:55 | 19.3 | 78.3 | 1022.0 | 0.0 | SW | 3.4 | SW | 0.0 | 0.1 | |||||||||
| 01:00 | 19.0 | 78.8 | 1021.9 | 0.2 | WSW | 3.4 | WSW | 0.0 | 0.1 | |||||||||
| 01:05 | 19.1 | 78.9 | 1022.0 | 0.0 | NNE | 0.0 | SW | 0.0 | 0.1 | |||||||||
| 01:10 | 19.1 | 79.2 | 1022.0 | 0.1 | NNE | 3.4 | NNE | 0.0 | 0.1 | |||||||||
| 01:15 | 19.1 | 79.4 | 1022.0 | 0.4 | ESE | 6.1 | ENE | 0.0 | 0.1 | |||||||||
| 01:20 | 19.0 | 79.3 | 1022.0 | 0.7 | NNW | 6.1 | WNW | 0.0 | 0.1 | |||||||||
| 01:25 | 18.9 | 79.6 | 1021.9 | 0.1 | S | 3.4 | S | 0.0 | 0.1 | |||||||||
| 01:30 | 18.9 | 79.6 | 1021.9 | 0.0 | NNE | 0.0 | S | 0.0 | 0.1 | |||||||||
| 01:35 | 19.0 | 79.5 | 1021.8 | 1.6 | NNW | 8.8 | WNW | 0.0 | 0.1 | |||||||||
| 01:40 | 19.1 | 79.0 | 1021.8 | 0.3 | NNW | 3.4 | NNW | 0.0 | 0.1 | |||||||||
| 01:45 | 19.0 | 79.5 | 1021.8 | 1.1 | NNE | 6.1 | ENE | 0.0 | 0.1 | |||||||||
| Máxima | 19.7 | 79.6 | 1022.1 | 3.6 | NNW | 8.8 | WNW | 0.0 | 0.1 | |||||||||
| Mínima | 18.9 | 77.6 | 1021.8 | |||||||||||||||
| Total | 0.0 | |||||||||||||||||